Sandwich, MA

5:20 PM EDT on September 27, 2016 (GMT -0400)
Martha's Vineyard | | Change Station

Elev 69 ft 41.39 °N, 70.61 °W | Updated 7 minutes ago

Overcast
Overcast
67 °F
Feels Like 67 °F
N
7
Wind Variable Wind from SSW

Today
High -- | Low -- °F
--% Chance of Precip.
Yesterday
High -- | Low -- °F
Precip. -- in
Pressure 29.92 in
Visibility 10.0 miles
Clouds Scattered Clouds 1000 ft
Overcast 1500 ft
Dew Point 64 °F
Humidity 90%
Rainfall 0.45 in
Snow Depth Not available.
6:35 AM 6:29 PM
Waning Crescent, 9% visible
SPECI KMVY 272113Z 21006KT 10SM SCT010 OVC015 19/18 A2992 RMK AO2 T01940178
Pressure 29.92 in
Visibility 10.0 miles
Clouds Scattered Clouds 1000 ft
Overcast 1500 ft
Dew Point 64 °F
Humidity 90%
Rainfall 0.45 in
Snow Depth Not available.
6:35 AM 6:29 PM
Waning Crescent, 9% visible
SPECI KMVY 272113Z 21006KT 10SM SCT010 OVC015 19/18 A2992 RMK AO2 T01940178

10-Day Weather Forecast

Almanac

Astronomy

Sep. 27, 2016 Rise Set
Actual Time
Civil Twilight
Nautical Twilight
Astronomical Twilight
Moon
Length of Visible Light
Length of Day
Tomorrow will be .
, % of the Moon is Illuminated

Today's Extremes

State Highs State Lows

Community

WunderPhotos

Upload Photos

1,942,160 photos uploaded!

WunderBlog® & News

Nearby

Air Quality

  Air Quality AQ Index Pollutant
Not available.

Snow Depth

Station Depth Elevation

Earthquake Activity

City Distance Mag. Time & Date
Minimum magnitude displayed is 2.5.

Coastal Water Temperatures

Place Temperature

Stations

Nearby Weather Stations

Station Location Temp. Windchill Dew Point Humidity Wind Precip. Elev Updated Type
                   

Watches & Warnings

There are currently no watches in effect.